createdAt,value
2023-05-05T00:01:28.224Z,51.64
2023-05-05T00:06:31.301Z,51.90
2023-05-05T00:11:34.114Z,52.04
2023-05-05T00:16:38.677Z,52.16
2023-05-05T00:21:41.593Z,52.26
2023-05-05T00:26:44.332Z,52.67
2023-05-05T00:31:51.789Z,53.52
2023-05-05T00:36:55.815Z,53.92
2023-05-05T00:41:59.409Z,53.30
2023-05-05T00:47:03.755Z,53.64
2023-05-05T00:52:07.287Z,53.89
2023-05-05T00:57:11.572Z,53.80
2023-05-05T01:02:19.590Z,53.54
2023-05-05T01:07:31.697Z,54.41
2023-05-05T01:12:41.510Z,54.55
2023-05-05T01:17:55.896Z,53.89
2023-05-05T01:23:03.780Z,54.00
2023-05-05T01:28:25.264Z,53.92
2023-05-05T01:33:36.198Z,54.32
2023-05-05T01:38:42.194Z,55.21
2023-05-05T01:43:47.999Z,55.43
2023-05-05T01:48:53.714Z,55.55
2023-05-05T01:54:00.163Z,55.51
2023-05-05T01:59:04.263Z,56.11
2023-05-05T02:04:10.638Z,56.20
2023-05-05T02:09:14.878Z,56.74
2023-05-05T02:14:19.946Z,56.79
2023-05-05T02:19:29.529Z,57.67
2023-05-05T02:24:32.427Z,57.30
2023-05-05T02:29:39.942Z,58.38
2023-05-05T02:34:46.235Z,58.08
2023-05-05T02:39:58.921Z,58.61
2023-05-05T02:45:11.335Z,59.15
2023-05-05T02:50:19.102Z,57.73
2023-05-05T02:55:38.599Z,58.54
2023-05-05T03:00:47.113Z,58.96
2023-05-05T03:06:00.128Z,59.69
2023-05-05T03:11:07.407Z,60.18
2023-05-05T03:16:16.329Z,59.68
2023-05-05T03:21:21.779Z,60.03
2023-05-05T03:26:25.049Z,59.64
2023-05-05T03:31:28.513Z,59.83
2023-05-05T03:36:35.849Z,61.20
2023-05-05T03:41:39.260Z,61.82
2023-05-05T03:46:44.488Z,61.52
2023-05-05T03:51:51.371Z,61.62
2023-05-05T03:56:54.724Z,62.30
2023-05-05T04:01:57.804Z,61.76
2023-05-05T04:07:02.030Z,63.36
2023-05-05T04:12:06.118Z,62.69
2023-05-05T04:17:09.027Z,63.33
2023-05-05T04:22:13.658Z,64.12
2023-05-05T04:27:16.528Z,64.76
2023-05-05T04:32:20.000Z,64.30
2023-05-05T04:37:26.243Z,64.69
2023-05-05T04:42:30.383Z,64.95
2023-05-05T04:47:38.313Z,66.26
2023-05-05T04:52:42.887Z,66.73
2023-05-05T04:57:45.839Z,68.56
2023-05-05T05:02:48.837Z,67.20
2023-05-05T05:07:53.096Z,68.07
2023-05-05T05:12:56.063Z,65.31
2023-05-05T05:17:58.966Z,65.55
2023-05-05T05:23:04.287Z,66.30
2023-05-05T05:28:10.984Z,66.38
2023-05-05T05:33:27.759Z,65.18
2023-05-05T05:38:33.885Z,66.74
2023-05-05T05:43:39.049Z,67.79
2023-05-05T05:48:42.182Z,66.31
2023-05-05T05:53:47.415Z,67.27
2023-05-05T05:58:50.285Z,63.99
2023-05-05T06:03:53.645Z,59.43
2023-05-05T06:08:58.830Z,58.99
2023-05-05T06:14:02.263Z,55.92
2023-05-05T06:19:09.435Z,57.47
2023-05-05T06:24:16.765Z,58.94
2023-05-05T06:29:19.814Z,57.76
2023-05-05T06:34:22.592Z,56.23
2023-05-05T06:39:26.788Z,54.84
2023-05-05T06:44:31.010Z,53.72
2023-05-05T06:49:33.860Z,51.03
2023-05-05T06:54:37.954Z,48.25
2023-05-05T06:59:40.723Z,48.90
2023-05-05T07:04:44.580Z,50.65
2023-05-05T07:09:48.745Z,51.05
2023-05-05T07:14:51.581Z,51.79
2023-05-05T07:19:54.962Z,52.45
2023-05-05T07:24:59.065Z,52.31
2023-05-05T07:30:05.033Z,51.98
2023-05-05T07:35:11.316Z,52.13
2023-05-05T07:40:15.468Z,51.66
2023-05-05T07:45:18.599Z,51.31
2023-05-05T07:50:21.655Z,51.80
2023-05-05T07:55:25.809Z,51.68
2023-05-05T08:00:28.599Z,50.89
2023-05-05T08:05:31.391Z,51.77
2023-05-05T08:10:35.523Z,50.18
2023-05-05T08:15:38.368Z,49.38
2023-05-05T08:20:41.233Z,48.40
2023-05-05T08:25:45.906Z,47.38
2023-05-05T08:30:49.474Z,48.35
2023-05-05T08:35:52.303Z,47.58
2023-05-05T08:40:56.463Z,46.61
2023-05-05T08:46:00.338Z,47.82
2023-05-05T08:51:06.137Z,45.72
2023-05-05T08:56:12.096Z,46.76
2023-05-05T09:01:15.697Z,46.58
2023-05-05T09:06:21.313Z,45.75
2023-05-05T09:11:25.704Z,45.14
2023-05-05T09:16:28.507Z,44.56
2023-05-05T09:21:32.070Z,44.80
2023-05-05T09:26:37.351Z,45.58
2023-05-05T09:31:40.228Z,45.29
2023-05-05T09:36:44.282Z,45.18
2023-05-05T09:41:48.475Z,45.27
2023-05-05T09:46:52.610Z,45.81
2023-05-05T09:51:55.987Z,46.10
2023-05-05T09:57:00.245Z,45.87
2023-05-05T10:02:12.738Z,46.14
2023-05-05T10:07:25.468Z,44.77
2023-05-05T10:12:31.210Z,43.09
2023-05-05T10:18:02.243Z,42.34
2023-05-05T10:23:11.382Z,41.61
2023-05-05T10:28:22.126Z,41.64
2023-05-05T10:33:32.597Z,40.48
2023-05-05T10:38:36.941Z,40.50
2023-05-05T10:43:41.798Z,39.17
2023-05-05T10:48:51.601Z,41.01
2023-05-05T10:54:01.453Z,40.14
2023-05-05T10:59:41.479Z,40.78
2023-05-05T11:04:44.448Z,41.87
2023-05-05T11:09:56.639Z,41.21
2023-05-05T11:15:37.831Z,40.43
2023-05-05T11:21:18.403Z,39.95
2023-05-05T11:26:52.245Z,39.61
2023-05-05T11:32:14.274Z,40.95
2023-05-05T11:37:17.297Z,40.91
2023-05-05T11:42:27.452Z,40.46
2023-05-05T11:47:33.617Z,41.37
2023-05-05T11:52:36.884Z,42.16
2023-05-05T11:57:42.742Z,42.12
2023-05-05T12:02:47.067Z,42.44
2023-05-05T12:07:56.831Z,42.82
2023-05-05T12:12:59.627Z,42.98
2023-05-05T12:18:05.897Z,42.23
2023-05-05T12:23:12.199Z,42.94
2023-05-05T12:28:14.989Z,42.99
2023-05-05T12:33:20.518Z,43.36
2023-05-05T12:38:23.511Z,43.33
2023-05-05T12:43:28.509Z,42.21
2023-05-05T12:48:32.843Z,43.03
2023-05-05T12:53:35.661Z,42.74
2023-05-05T12:58:50.810Z,43.72
2023-05-05T13:04:12.867Z,45.71
2023-05-05T13:09:25.842Z,47.05
2023-05-05T13:14:28.811Z,47.71
2023-05-05T13:19:35.540Z,47.13
2023-05-05T13:24:50.684Z,46.82
2023-05-05T13:29:55.312Z,46.44
2023-05-05T13:35:00.600Z,46.75
2023-05-05T13:40:03.512Z,46.69
2023-05-05T13:45:07.185Z,46.71
2023-05-05T13:50:12.343Z,45.83
2023-05-05T13:55:15.078Z,45.29
2023-05-05T14:00:20.375Z,46.33
2023-05-05T14:05:24.468Z,46.36
2023-05-05T14:10:29.764Z,46.73
2023-05-05T14:15:32.661Z,45.90
2023-05-05T14:20:36.834Z,45.47
2023-05-05T14:25:39.862Z,45.79
2023-05-05T14:30:42.593Z,46.48
2023-05-05T14:35:46.730Z,46.36
2023-05-05T14:40:49.562Z,44.66
2023-05-05T14:45:53.129Z,44.41
2023-05-05T14:50:57.258Z,45.41
2023-05-05T14:56:00.067Z,46.52
2023-05-05T15:01:02.822Z,46.32
2023-05-05T15:06:08.227Z,47.21
2023-05-05T15:11:11.132Z,50.92
2023-05-05T15:16:14.028Z,54.63
2023-05-05T15:21:18.248Z,52.65
2023-05-05T15:26:21.315Z,51.29
2023-05-05T15:31:24.087Z,49.13
2023-05-05T15:36:28.623Z,49.11
2023-05-05T15:41:31.550Z,49.15
2023-05-05T15:46:34.432Z,49.37
2023-05-05T15:51:38.637Z,50.23
2023-05-05T15:56:43.122Z,50.82
2023-05-05T16:01:48.065Z,50.42
2023-05-05T16:06:52.309Z,50.23
2023-05-05T16:11:55.303Z,51.03
2023-05-05T16:16:58.324Z,51.08
2023-05-05T16:27:55.878Z,51.72
2023-05-05T16:33:31.718Z,52.67
2023-05-05T16:59:07.586Z,54.13
2023-05-05T17:04:23.974Z,54.43
2023-05-05T17:09:47.645Z,54.00
2023-05-05T17:21:05.779Z,55.83
2023-05-05T17:26:14.557Z,56.23
2023-05-05T17:31:55.492Z,57.61
2023-05-05T17:36:58.285Z,57.97
2023-05-05T17:42:06.694Z,57.79
2023-05-05T17:47:26.910Z,59.14
2023-05-05T17:52:55.906Z,58.92
2023-05-05T17:58:30.139Z,59.07
2023-05-05T18:03:53.383Z,60.42
2023-05-05T18:09:01.175Z,63.68
2023-05-05T18:14:06.111Z,72.17
2023-05-05T18:33:22.648Z,71.13
2023-05-05T18:38:36.605Z,70.03
2023-05-05T18:43:58.614Z,68.54
2023-05-05T19:03:32.312Z,67.00
2023-05-05T19:35:30.652Z,67.25
2023-05-05T20:09:58.826Z,69.14
2023-05-05T20:30:07.945Z,69.94
2023-05-05T20:42:05.728Z,71.85
2023-05-05T20:47:10.749Z,73.54
2023-05-05T20:52:15.965Z,74.38
2023-05-05T20:57:20.509Z,75.79
2023-05-05T21:02:24.665Z,77.98
2023-05-05T21:07:29.951Z,79.13
2023-05-05T21:12:35.125Z,80.68
2023-05-05T21:17:39.415Z,81.88
2023-05-05T21:22:45.431Z,81.15
2023-05-05T21:27:48.436Z,80.92
2023-05-05T21:32:52.998Z,80.67
2023-05-05T21:37:56.061Z,81.23
2023-05-05T21:42:58.861Z,83.82
2023-05-05T21:48:03.022Z,83.51
2023-05-05T21:53:05.884Z,83.38
2023-05-05T21:58:09.508Z,81.33
2023-05-05T22:03:13.794Z,83.23
2023-05-05T22:08:16.620Z,83.51
2023-05-05T22:13:19.547Z,84.70
2023-05-05T22:18:23.704Z,83.10
2023-05-05T22:23:26.464Z,83.32
2023-05-05T22:28:29.800Z,82.39
2023-05-05T22:33:33.911Z,82.49
2023-05-05T22:38:36.901Z,82.16
2023-05-05T22:43:40.243Z,82.78
2023-05-05T22:48:44.352Z,82.10
2023-05-05T22:53:47.156Z,81.20
2023-05-05T22:58:50.216Z,81.86
2023-05-05T23:03:54.478Z,79.46
2023-05-05T23:08:57.227Z,80.66
2023-05-05T23:13:59.957Z,79.93
2023-05-05T23:19:04.178Z,81.20
2023-05-05T23:24:07.424Z,80.89
2023-05-05T23:29:10.209Z,80.28
2023-05-05T23:34:14.760Z,80.44
2023-05-05T23:39:17.611Z,79.35
2023-05-05T23:44:20.426Z,79.08
2023-05-05T23:49:26.265Z,79.59
2023-05-05T23:54:28.992Z,79.14
2023-05-05T23:59:31.835Z,78.94
